createdAt,value
2019-02-21T00:00:56.179Z,64.24
2019-02-21T00:02:11.759Z,64.31
2019-02-21T00:03:17.168Z,64.31
2019-02-21T00:04:22.090Z,64.22
2019-02-21T00:05:27.028Z,64.22
2019-02-21T00:06:31.992Z,64.46
2019-02-21T00:07:36.906Z,64.54
2019-02-21T00:08:41.913Z,64.54
2019-02-21T00:09:46.896Z,64.53
2019-02-21T00:10:51.888Z,64.53
2019-02-21T00:11:57.163Z,64.53
2019-02-21T00:13:03.462Z,64.54
2019-02-21T00:14:08.442Z,64.15
2019-02-21T00:15:13.550Z,64.15
2019-02-21T00:16:18.730Z,64.58
2019-02-21T00:17:23.671Z,64.59
2019-02-21T00:18:28.726Z,64.63
2019-02-21T00:19:33.736Z,64.64
2019-02-21T00:20:39.222Z,64.66
2019-02-21T00:21:44.125Z,64.69
2019-02-21T00:22:49.119Z,64.70
2019-02-21T00:23:54.210Z,64.69
2019-02-21T00:24:59.131Z,64.68
2019-02-21T00:26:04.181Z,64.90
2019-02-21T00:27:09.952Z,64.90
2019-02-21T00:28:15.044Z,64.67
2019-02-21T00:29:19.940Z,64.68
2019-02-21T00:30:34.901Z,64.69
2019-02-21T00:31:31.574Z,64.72
2019-02-21T00:32:36.580Z,64.73
2019-02-21T00:33:41.530Z,64.78
2019-02-21T00:34:46.424Z,64.83
2019-02-21T00:35:51.925Z,64.90
2019-02-21T00:36:56.894Z,65.00
2019-02-21T00:38:01.843Z,65.06
2019-02-21T00:39:07.260Z,65.12
2019-02-21T00:40:12.595Z,65.14
2019-02-21T00:41:17.596Z,65.18
2019-02-21T00:42:22.511Z,65.22
2019-02-21T00:43:27.411Z,65.24
2019-02-21T00:44:32.417Z,65.27
2019-02-21T00:45:37.329Z,65.28
2019-02-21T00:46:42.304Z,65.30
2019-02-21T00:47:47.230Z,65.34
2019-02-21T00:48:52.125Z,65.37
2019-02-21T00:49:57.730Z,65.40
2019-02-21T00:51:02.946Z,65.43
2019-02-21T00:52:07.871Z,65.43
2019-02-21T00:53:13.209Z,65.47
2019-02-21T00:54:18.595Z,65.45
2019-02-21T00:55:23.590Z,65.46
2019-02-21T00:56:28.599Z,65.50
2019-02-21T00:57:34.111Z,65.50
2019-02-21T00:58:39.559Z,65.49
2019-02-21T00:59:44.560Z,65.46
2019-02-21T01:00:49.702Z,65.46
2019-02-21T01:01:54.626Z,65.45
2019-02-21T01:03:00.111Z,65.47
2019-02-21T01:04:05.084Z,65.48
2019-02-21T01:05:10.162Z,65.46
2019-02-21T01:06:15.152Z,65.42
2019-02-21T01:07:20.082Z,65.46
2019-02-21T01:08:25.078Z,65.46
2019-02-21T01:09:30.096Z,65.45
2019-02-21T01:10:35.362Z,65.46
2019-02-21T01:11:40.896Z,65.45
2019-02-21T01:12:45.999Z,65.44
2019-02-21T01:13:50.925Z,65.43
2019-02-21T01:14:55.913Z,65.47
2019-02-21T01:16:00.868Z,65.46
2019-02-21T01:17:05.892Z,65.47
2019-02-21T01:18:10.931Z,65.45
2019-02-21T01:19:15.934Z,65.42
2019-02-21T01:20:20.934Z,65.34
2019-02-21T01:21:26.094Z,65.34
2019-02-21T01:22:31.026Z,65.52
2019-02-21T01:23:36.023Z,65.53
2019-02-21T01:24:41.134Z,65.55
2019-02-21T01:25:46.123Z,65.54
2019-02-21T01:26:51.027Z,65.58
2019-02-21T01:27:56.065Z,65.60
2019-02-21T01:29:01.135Z,65.62
2019-02-21T01:30:06.570Z,65.64
2019-02-21T01:31:11.521Z,65.65
2019-02-21T01:32:16.643Z,65.69
2019-02-21T01:33:21.690Z,65.74
2019-02-21T01:34:27.119Z,65.79
2019-02-21T01:35:32.174Z,65.84
2019-02-21T01:36:37.157Z,65.85
2019-02-21T01:37:42.189Z,65.86
2019-02-21T01:38:47.399Z,65.29
2019-02-21T01:41:57.762Z,65.86
2019-02-21T01:43:02.712Z,65.77
2019-02-21T01:44:07.769Z,65.77
2019-02-21T01:45:12.976Z,65.83
2019-02-21T01:46:18.720Z,65.86
2019-02-21T01:47:23.796Z,65.87
2019-02-21T01:48:29.629Z,65.87
2019-02-21T01:49:35.042Z,65.87
2019-02-21T01:50:40.086Z,65.89
2019-02-21T01:51:45.163Z,65.95
2019-02-21T01:52:50.766Z,66.00
2019-02-21T01:53:55.789Z,66.03
2019-02-21T01:55:01.261Z,66.02
2019-02-21T01:56:06.662Z,66.01
2019-02-21T01:57:11.800Z,65.98
2019-02-21T01:58:17.251Z,65.99
2019-02-21T01:59:22.381Z,66.07
2019-02-21T02:00:28.164Z,66.11
2019-02-21T02:01:33.829Z,66.09
2019-02-21T02:02:39.206Z,66.07
2019-02-21T02:03:44.745Z,66.06
2019-02-21T02:04:49.797Z,66.09
2019-02-21T02:05:54.789Z,66.14
2019-02-21T02:06:59.869Z,66.19
2019-02-21T02:08:04.955Z,66.21
2019-02-21T02:09:12.802Z,66.25
2019-02-21T02:10:18.167Z,66.24
2019-02-21T02:11:23.186Z,66.26
2019-02-21T02:12:28.291Z,66.29
2019-02-21T02:13:33.320Z,66.26
2019-02-21T02:14:38.318Z,66.26
2019-02-21T02:15:43.361Z,66.21
2019-02-21T02:16:48.409Z,66.21
2019-02-21T02:17:53.383Z,66.23
2019-02-21T02:18:58.713Z,66.26
2019-02-21T02:20:04.245Z,66.29
2019-02-21T02:21:09.368Z,66.32
2019-02-21T02:22:14.480Z,66.34
2019-02-21T02:23:19.603Z,66.33
2019-02-21T02:24:26.873Z,66.37
2019-02-21T02:25:32.147Z,66.42
2019-02-21T02:26:37.350Z,66.49
2019-02-21T02:27:42.741Z,66.50
2019-02-21T02:28:47.790Z,66.53
2019-02-21T02:29:53.153Z,66.55
2019-02-21T02:30:58.423Z,66.57
2019-02-21T02:32:03.519Z,66.53
2019-02-21T02:33:08.740Z,66.50
2019-02-21T02:34:14.107Z,66.50
2019-02-21T02:35:19.246Z,66.51
2019-02-21T02:36:24.574Z,66.56
2019-02-21T02:37:29.596Z,66.65
2019-02-21T02:38:34.809Z,66.65
2019-02-21T02:39:40.043Z,66.67
2019-02-21T02:40:44.977Z,66.67
2019-02-21T02:41:50.295Z,66.66
2019-02-21T02:42:55.651Z,66.64
2019-02-21T02:44:00.696Z,66.62
2019-02-21T02:45:06.501Z,66.59
2019-02-21T02:46:11.546Z,66.58
2019-02-21T02:47:16.562Z,66.59
2019-02-21T02:48:21.566Z,66.62
2019-02-21T02:49:26.566Z,66.64
2019-02-21T02:50:31.695Z,66.59
2019-02-21T02:51:36.799Z,66.62
2019-02-21T02:52:41.923Z,66.59
2019-02-21T02:53:47.143Z,66.59
2019-02-21T02:54:52.280Z,66.55
2019-02-21T02:55:57.261Z,66.52
2019-02-21T02:57:02.371Z,66.52
2019-02-21T02:58:08.340Z,66.50
2019-02-21T02:59:13.304Z,66.51
2019-02-21T03:00:18.799Z,66.52
2019-02-21T03:01:34.467Z,66.61
2019-02-21T03:02:31.019Z,66.62
2019-02-21T03:03:36.402Z,66.59
2019-02-21T03:04:41.616Z,66.49
2019-02-21T03:05:46.963Z,66.49
2019-02-21T03:06:51.936Z,66.50
2019-02-21T03:07:56.895Z,66.55
2019-02-21T03:09:02.532Z,66.63
2019-02-21T03:10:09.139Z,66.69
2019-02-21T03:11:14.274Z,66.64
2019-02-21T03:12:19.349Z,66.59
2019-02-21T03:13:24.609Z,66.50
2019-02-21T03:14:29.991Z,66.48
2019-02-21T03:15:35.317Z,66.43
2019-02-21T03:16:40.385Z,66.36
2019-02-21T03:17:45.496Z,66.27
2019-02-21T03:18:50.485Z,66.20
2019-02-21T03:19:56.071Z,66.10
2019-02-21T03:21:01.129Z,66.07
2019-02-21T03:22:06.216Z,66.05
2019-02-21T03:23:11.538Z,66.00
2019-02-21T03:24:16.853Z,65.94
2019-02-21T03:25:22.027Z,65.91
2019-02-21T03:26:27.077Z,65.86
2019-02-21T03:27:32.475Z,65.83
2019-02-21T03:28:37.506Z,65.84
2019-02-21T03:29:43.175Z,65.87
2019-02-21T03:30:48.497Z,65.92
2019-02-21T03:31:55.847Z,65.92
2019-02-21T03:33:00.691Z,65.91
2019-02-21T03:34:05.863Z,65.89
2019-02-21T03:35:11.024Z,65.87
2019-02-21T03:36:16.076Z,65.86
2019-02-21T03:37:21.188Z,65.84
2019-02-21T03:38:26.783Z,65.84
2019-02-21T03:39:33.204Z,65.81
2019-02-21T03:40:38.275Z,65.80
2019-02-21T03:41:43.718Z,65.81
2019-02-21T03:42:48.606Z,65.81
2019-02-21T03:43:53.643Z,65.81
2019-02-21T03:44:58.711Z,65.79
2019-02-21T03:46:03.737Z,65.78
2019-02-21T03:47:08.860Z,65.79
2019-02-21T03:48:14.453Z,65.78
2019-02-21T03:49:19.589Z,65.77
2019-02-21T03:50:25.057Z,65.77
2019-02-21T03:51:30.431Z,65.75
2019-02-21T03:52:35.860Z,65.75
2019-02-21T03:53:41.191Z,65.73
2019-02-21T03:54:46.396Z,65.70
2019-02-21T03:55:51.817Z,65.70
2019-02-21T03:56:56.821Z,65.67
2019-02-21T03:58:02.000Z,65.66
2019-02-21T03:59:07.453Z,65.62
2019-02-21T04:00:12.644Z,65.62
2019-02-21T04:01:17.743Z,65.60
2019-02-21T04:02:22.859Z,65.61
2019-02-21T04:03:28.633Z,65.58
2019-02-21T04:04:33.832Z,65.55
2019-02-21T04:05:39.279Z,65.53
2019-02-21T04:06:44.712Z,65.59
2019-02-21T04:07:49.878Z,65.61
2019-02-21T04:08:54.844Z,65.75
2019-02-21T04:10:00.514Z,65.75
2019-02-21T04:11:05.696Z,65.52
2019-02-21T04:12:10.961Z,65.53
2019-02-21T04:13:16.039Z,65.90
2019-02-21T04:14:21.302Z,65.46
2019-02-21T04:15:26.259Z,65.47
2019-02-21T04:16:31.360Z,65.50
2019-02-21T04:17:36.417Z,65.49
2019-02-21T04:18:41.858Z,65.46
2019-02-21T04:19:46.970Z,65.43
2019-02-21T04:20:51.945Z,65.44
2019-02-21T04:21:57.103Z,65.40
2019-02-21T04:23:02.384Z,65.41
2019-02-21T04:24:07.496Z,65.41
2019-02-21T04:25:12.576Z,65.41
2019-02-21T04:26:17.547Z,65.44
2019-02-21T04:27:22.490Z,65.46
2019-02-21T04:28:27.893Z,65.47
2019-02-21T04:29:34.044Z,65.50
2019-02-21T04:30:39.645Z,65.60
2019-02-21T04:31:44.764Z,65.67
2019-02-21T04:32:50.060Z,65.70
2019-02-21T04:33:55.065Z,65.76
2019-02-21T04:35:00.482Z,65.87
2019-02-21T04:36:05.518Z,65.93
2019-02-21T04:37:10.807Z,65.97
2019-02-21T04:38:15.839Z,66.01
2019-02-21T04:39:20.901Z,66.10
2019-02-21T04:40:26.354Z,66.20
2019-02-21T04:41:31.433Z,66.29
2019-02-21T04:42:36.784Z,66.31
2019-02-21T04:43:41.813Z,66.35
2019-02-21T04:44:47.031Z,66.40
2019-02-21T04:45:52.405Z,66.45
2019-02-21T04:46:57.448Z,66.52
2019-02-21T04:48:02.698Z,66.57
2019-02-21T04:49:07.750Z,66.66
2019-02-21T04:50:12.060Z,66.71
2019-02-21T04:51:17.074Z,66.74
2019-02-21T04:52:22.273Z,66.72
2019-02-21T04:53:27.267Z,66.73
2019-02-21T04:54:32.584Z,66.78
2019-02-21T04:55:37.651Z,66.85
2019-02-21T04:56:42.608Z,66.92
2019-02-21T04:57:47.736Z,66.97
2019-02-21T04:58:52.992Z,67.01
2019-02-21T04:59:58.084Z,67.02
2019-02-21T05:01:03.056Z,67.05
2019-02-21T05:02:08.863Z,67.06
2019-02-21T05:03:14.257Z,67.10
2019-02-21T05:04:19.275Z,67.12
2019-02-21T05:05:24.561Z,67.14
2019-02-21T05:06:29.742Z,67.17
2019-02-21T05:07:34.909Z,67.22
2019-02-21T05:08:39.894Z,67.29
2019-02-21T05:09:57.069Z,67.34
2019-02-21T05:10:51.891Z,67.35
2019-02-21T05:11:57.512Z,67.36
2019-02-21T05:13:02.910Z,67.40
2019-02-21T05:14:07.981Z,67.36
2019-02-21T05:15:14.198Z,67.39
2019-02-21T05:16:19.825Z,67.45
2019-02-21T05:17:24.913Z,67.48
2019-02-21T05:18:30.329Z,67.58
2019-02-21T05:19:35.383Z,67.61
2019-02-21T05:20:40.432Z,67.69
2019-02-21T05:21:46.393Z,67.75
2019-02-21T05:22:51.423Z,67.78
2019-02-21T05:23:56.501Z,67.82
2019-02-21T05:25:01.807Z,67.84
2019-02-21T05:26:08.151Z,67.85
2019-02-21T05:27:17.212Z,67.90
2019-02-21T05:28:28.650Z,67.93
2019-02-21T05:29:34.431Z,68.02
2019-02-21T05:30:39.810Z,68.08
2019-02-21T05:31:52.064Z,68.09
2019-02-21T05:33:15.247Z,68.09
2019-02-21T05:34:48.263Z,68.09
2019-02-21T05:36:15.240Z,68.13
2019-02-21T05:37:48.896Z,68.23
2019-02-21T05:39:19.268Z,68.26
2019-02-21T05:40:47.367Z,68.35
2019-02-21T05:41:59.654Z,68.37
2019-02-21T05:43:21.583Z,68.44
2019-02-21T05:44:34.807Z,68.45
2019-02-21T05:45:57.995Z,68.49
2019-02-21T05:47:22.248Z,68.52
2019-02-21T05:48:33.215Z,68.50
2019-02-21T05:49:45.886Z,68.51
2019-02-21T05:51:13.918Z,68.54
2019-02-21T05:52:33.009Z,68.64
2019-02-21T05:54:09.094Z,68.65
2019-02-21T05:55:19.875Z,68.69
2019-02-21T05:57:02.350Z,68.70
2019-02-21T05:58:24.964Z,68.75
2019-02-21T05:59:47.221Z,68.77
2019-02-21T06:01:01.442Z,68.81
2019-02-21T06:02:15.760Z,68.83
2019-02-21T06:03:39.777Z,68.88
2019-02-21T06:04:54.623Z,68.92
2019-02-21T06:06:18.651Z,68.98
2019-02-21T06:07:48.683Z,69.00
2019-02-21T06:09:00.250Z,69.08
2019-02-21T06:10:24.439Z,69.13
2019-02-21T06:11:35.776Z,69.15
2019-02-21T06:12:53.928Z,69.17
2019-02-21T06:14:17.008Z,69.18
2019-02-21T06:15:34.888Z,69.18
2019-02-21T06:17:14.695Z,69.18
2019-02-21T06:18:29.257Z,69.22
2019-02-21T06:19:49.940Z,69.21
2019-02-21T06:21:02.844Z,69.27
2019-02-21T06:22:36.345Z,69.33
2019-02-21T06:23:59.290Z,69.36
2019-02-21T06:25:23.429Z,69.34
2019-02-21T06:26:33.853Z,69.34
2019-02-21T06:28:00.808Z,69.33
2019-02-21T06:29:09.760Z,69.44
2019-02-21T06:30:30.035Z,69.55
2019-02-21T06:31:35.274Z,69.64
2019-02-21T06:32:40.895Z,69.69
2019-02-21T06:33:46.202Z,69.75
2019-02-21T06:34:52.532Z,69.78
2019-02-21T06:35:57.937Z,69.83
2019-02-21T06:37:02.945Z,69.90
2019-02-21T06:38:08.371Z,69.92
2019-02-21T06:39:13.732Z,69.92
2019-02-21T06:40:19.245Z,69.94
2019-02-21T06:41:24.597Z,69.97
2019-02-21T06:42:30.018Z,70.00
2019-02-21T06:43:35.391Z,70.08
2019-02-21T06:44:40.429Z,70.15
2019-02-21T06:45:45.655Z,70.18
2019-02-21T06:46:50.713Z,70.21
2019-02-21T06:47:55.875Z,70.22
2019-02-21T06:49:01.013Z,70.23
2019-02-21T06:50:06.415Z,70.27
2019-02-21T06:51:11.645Z,70.30
2019-02-21T06:52:17.428Z,70.33
2019-02-21T06:53:22.616Z,70.38
2019-02-21T06:54:28.407Z,70.39
2019-02-21T06:55:34.071Z,70.42
2019-02-21T06:56:39.703Z,70.41
2019-02-21T06:57:44.966Z,70.43
2019-02-21T06:58:50.237Z,70.44
2019-02-21T06:59:55.445Z,70.48
2019-02-21T07:01:01.003Z,70.52
2019-02-21T07:02:06.137Z,70.54
2019-02-21T07:03:15.897Z,70.56
2019-02-21T07:04:18.445Z,70.58
2019-02-21T07:05:23.804Z,70.60
2019-02-21T07:06:32.076Z,70.60
2019-02-21T07:07:35.695Z,70.65
2019-02-21T07:08:40.740Z,70.65
2019-02-21T07:09:45.779Z,70.66
2019-02-21T07:10:50.986Z,70.59
2019-02-21T07:11:56.020Z,70.59
2019-02-21T07:13:01.384Z,70.58
2019-02-21T07:14:06.415Z,70.59
2019-02-21T07:15:11.952Z,70.58
2019-02-21T07:16:17.629Z,70.58
2019-02-21T07:17:22.879Z,70.60
2019-02-21T07:18:28.880Z,70.35
2019-02-21T07:19:34.206Z,70.35
2019-02-21T07:20:39.827Z,70.56
2019-02-21T07:21:45.139Z,70.55
2019-02-21T07:22:50.313Z,70.57
2019-02-21T07:23:55.619Z,70.62
2019-02-21T07:25:05.817Z,70.63
2019-02-21T07:26:13.809Z,70.61
2019-02-21T07:27:19.032Z,70.61
2019-02-21T07:28:23.998Z,70.60
2019-02-21T07:29:29.388Z,70.58
2019-02-21T07:30:34.833Z,70.55
2019-02-21T07:31:39.778Z,70.49
2019-02-21T07:32:44.863Z,70.48
2019-02-21T07:33:50.352Z,70.47
2019-02-21T07:34:55.644Z,70.43
2019-02-21T07:36:01.354Z,70.41
2019-02-21T07:37:17.783Z,70.44
2019-02-21T07:38:13.292Z,70.45
2019-02-21T07:39:20.697Z,70.39
2019-02-21T07:40:25.158Z,70.31
2019-02-21T07:41:30.170Z,70.27
2019-02-21T07:42:35.479Z,70.21
2019-02-21T07:43:40.603Z,70.20
2019-02-21T07:44:45.812Z,70.17
2019-02-21T07:45:50.923Z,70.16
2019-02-21T07:46:55.912Z,70.12
2019-02-21T07:48:01.258Z,70.12
2019-02-21T07:49:06.264Z,70.09
2019-02-21T07:50:11.563Z,70.03
2019-02-21T07:51:16.539Z,69.96
2019-02-21T07:52:21.997Z,69.91
2019-02-21T07:53:27.537Z,69.93
2019-02-21T07:54:32.996Z,69.93
2019-02-21T07:55:38.192Z,69.93
2019-02-21T07:56:43.266Z,69.94
2019-02-21T07:57:48.274Z,69.93
2019-02-21T07:58:53.764Z,69.95
2019-02-21T07:59:58.711Z,69.94
2019-02-21T08:01:04.104Z,69.94
2019-02-21T08:02:09.149Z,69.93
2019-02-21T08:03:14.214Z,69.93
2019-02-21T08:04:19.392Z,69.93
2019-02-21T08:05:24.471Z,69.92
2019-02-21T08:06:29.597Z,69.92
2019-02-21T08:07:35.271Z,69.92
2019-02-21T08:08:40.622Z,69.91
2019-02-21T08:09:45.750Z,69.89
2019-02-21T08:10:51.259Z,69.90
2019-02-21T08:11:56.323Z,69.88
2019-02-21T08:13:01.375Z,69.90
2019-02-21T08:14:06.582Z,69.88
2019-02-21T08:15:12.186Z,69.88
2019-02-21T08:16:17.334Z,69.86
2019-02-21T08:17:22.531Z,69.83
2019-02-21T08:18:27.545Z,69.79
2019-02-21T08:19:32.679Z,69.78
2019-02-21T08:20:40.790Z,69.78
2019-02-21T08:21:44.901Z,69.75
2019-02-21T08:22:52.233Z,69.70
2019-02-21T08:23:59.211Z,69.64
2019-02-21T08:25:05.009Z,69.59
2019-02-21T08:26:10.019Z,69.55
2019-02-21T08:27:15.107Z,69.47
2019-02-21T08:28:20.415Z,69.41
2019-02-21T08:29:25.846Z,69.34
2019-02-21T08:30:32.942Z,69.28
2019-02-21T08:31:38.244Z,69.17
2019-02-21T08:33:17.833Z,69.02
2019-02-21T08:34:30.662Z,68.97
2019-02-21T08:35:35.963Z,68.75
2019-02-21T08:36:40.954Z,68.70
2019-02-21T08:37:45.923Z,68.62
2019-02-21T08:38:50.972Z,68.50
2019-02-21T08:39:56.282Z,68.32
2019-02-21T08:41:01.264Z,68.26
2019-02-21T08:42:06.555Z,68.25
2019-02-21T08:43:12.062Z,68.19
2019-02-21T08:44:17.388Z,68.05
2019-02-21T08:45:22.459Z,67.94
2019-02-21T08:46:27.566Z,67.88
2019-02-21T08:47:32.552Z,67.77
2019-02-21T08:48:40.298Z,67.77
2019-02-21T08:49:44.630Z,67.64
2019-02-21T08:50:49.789Z,67.53
2019-02-21T08:51:55.186Z,67.47
2019-02-21T08:53:01.120Z,67.23
2019-02-21T08:55:00.515Z,67.23
2019-02-21T08:56:04.690Z,67.32
2019-02-21T08:57:09.738Z,67.13
2019-02-21T08:58:14.851Z,67.20
2019-02-21T08:59:19.788Z,67.17
2019-02-21T09:00:24.739Z,67.16
2019-02-21T09:01:29.822Z,67.19
2019-02-21T09:02:36.030Z,67.15
2019-02-21T09:03:41.303Z,67.08
2019-02-21T09:04:46.637Z,67.01
2019-02-21T09:05:51.972Z,66.98
2019-02-21T09:06:57.317Z,66.94
2019-02-21T09:08:02.733Z,66.91
2019-02-21T09:09:07.873Z,66.88
2019-02-21T09:10:13.406Z,67.41
2019-02-21T09:11:19.775Z,66.87
2019-02-21T09:12:25.350Z,66.87
2019-02-21T09:13:30.636Z,67.13
2019-02-21T09:14:35.614Z,67.21
2019-02-21T09:15:41.269Z,67.21
2019-02-21T09:16:46.342Z,66.95
2019-02-21T09:17:53.993Z,66.92
2019-02-21T09:18:58.827Z,66.92
2019-02-21T09:20:03.900Z,66.92
2019-02-21T09:21:08.942Z,66.86
2019-02-21T09:22:13.965Z,66.87
2019-02-21T09:23:19.185Z,66.83
2019-02-21T09:24:37.464Z,66.79
2019-02-21T09:25:30.997Z,66.73
2019-02-21T09:26:36.112Z,66.64
2019-02-21T09:27:41.104Z,66.53
2019-02-21T09:28:46.088Z,66.42
2019-02-21T09:29:51.112Z,66.30
2019-02-21T09:30:56.634Z,65.90
2019-02-21T09:32:02.283Z,66.07
2019-02-21T09:33:16.960Z,66.02
2019-02-21T09:34:21.058Z,65.91
2019-02-21T09:35:20.896Z,65.84
2019-02-21T09:36:25.924Z,65.81
2019-02-21T09:37:31.134Z,65.75
2019-02-21T09:38:36.096Z,65.75
2019-02-21T09:39:41.291Z,65.58
2019-02-21T09:40:46.442Z,65.51
2019-02-21T09:41:51.736Z,65.43
2019-02-21T09:42:57.442Z,65.39
2019-02-21T09:44:02.503Z,65.34
2019-02-21T09:45:14.923Z,65.32
2019-02-21T09:46:20.291Z,65.28
2019-02-21T09:47:25.299Z,65.31
2019-02-21T09:48:30.257Z,65.16
2019-02-21T09:49:35.339Z,65.08
2019-02-21T09:50:40.398Z,65.03
2019-02-21T09:51:45.690Z,64.93
2019-02-21T09:52:50.650Z,64.84
2019-02-21T09:53:56.091Z,64.76
2019-02-21T09:55:01.625Z,64.64
2019-02-21T09:56:06.563Z,64.52
2019-02-21T09:57:13.576Z,64.42
2019-02-21T09:58:18.388Z,64.35
2019-02-21T09:59:23.643Z,64.32
2019-02-21T10:00:29.011Z,64.24
2019-02-21T10:01:33.935Z,64.17
2019-02-21T10:02:38.825Z,64.11
2019-02-21T10:03:44.376Z,64.03
2019-02-21T10:04:49.558Z,63.96
2019-02-21T10:05:54.869Z,63.91
2019-02-21T10:07:00.147Z,63.87
2019-02-21T10:08:05.089Z,63.90
2019-02-21T10:09:10.027Z,63.94
2019-02-21T10:10:16.656Z,63.91
2019-02-21T10:11:21.600Z,63.93
2019-02-21T10:12:26.530Z,64.04
2019-02-21T10:13:31.837Z,64.04
2019-02-21T10:14:36.926Z,64.13
2019-02-21T10:15:42.011Z,64.14
2019-02-21T10:16:49.621Z,64.15
2019-02-21T10:17:54.355Z,64.18
2019-02-21T10:18:59.293Z,64.16
2019-02-21T10:20:05.698Z,64.18
2019-02-21T10:21:10.855Z,64.22
2019-02-21T10:22:15.768Z,64.25
2019-02-21T10:23:20.737Z,64.29
2019-02-21T10:24:25.833Z,64.30
2019-02-21T10:25:31.043Z,64.32
2019-02-21T10:26:35.986Z,64.37
2019-02-21T10:27:40.970Z,64.40
2019-02-21T10:28:46.003Z,64.41
2019-02-21T10:29:50.992Z,64.44
2019-02-21T10:30:56.112Z,64.51
2019-02-21T10:32:01.676Z,64.54
2019-02-21T10:33:07.102Z,64.60
2019-02-21T10:34:12.200Z,64.63
2019-02-21T10:35:17.146Z,64.71
2019-02-21T10:36:22.059Z,64.78
2019-02-21T10:37:27.358Z,64.82
2019-02-21T10:38:32.687Z,64.85
2019-02-21T10:39:37.660Z,64.86
2019-02-21T10:40:43.283Z,64.89
2019-02-21T10:41:48.150Z,64.96
2019-02-21T10:42:53.561Z,65.02
2019-02-21T10:43:58.515Z,65.08
2019-02-21T10:45:04.893Z,65.17
2019-02-21T10:46:10.086Z,65.24
2019-02-21T10:47:15.018Z,65.30
2019-02-21T10:48:20.035Z,65.45
2019-02-21T10:49:25.287Z,65.54
2019-02-21T10:50:30.316Z,65.67
2019-02-21T10:51:35.341Z,65.80
2019-02-21T10:52:41.625Z,65.90
2019-02-21T10:53:47.355Z,65.95
2019-02-21T10:54:52.715Z,65.99
2019-02-21T10:55:57.709Z,66.09
2019-02-21T10:57:02.809Z,66.16
2019-02-21T10:58:08.170Z,66.22
2019-02-21T10:59:13.281Z,66.28
2019-02-21T11:00:21.279Z,66.33
2019-02-21T11:01:26.329Z,66.40
2019-02-21T11:02:31.324Z,66.51
2019-02-21T11:03:36.544Z,66.56
2019-02-21T11:04:42.428Z,66.61
2019-02-21T11:05:47.682Z,66.67
2019-02-21T11:06:53.059Z,66.67
2019-02-21T11:07:58.083Z,66.67
2019-02-21T11:09:03.278Z,66.68
2019-02-21T11:10:09.387Z,66.66
2019-02-21T11:11:17.135Z,66.61
2019-02-21T11:12:21.865Z,66.58
2019-02-21T11:13:27.123Z,66.54
2019-02-21T11:14:32.074Z,66.46
2019-02-21T11:15:37.493Z,66.42
2019-02-21T11:16:42.916Z,66.34
2019-02-21T11:17:47.907Z,66.31
2019-02-21T11:18:52.932Z,66.27
2019-02-21T11:19:57.964Z,66.24
2019-02-21T11:21:02.967Z,66.22
2019-02-21T11:22:08.007Z,66.20
2019-02-21T11:23:12.954Z,66.20
2019-02-21T11:24:18.020Z,66.20
2019-02-21T11:25:23.404Z,66.21
2019-02-21T11:26:29.114Z,66.25
2019-02-21T11:27:34.044Z,66.26
2019-02-21T11:28:39.049Z,66.27
2019-02-21T11:29:44.043Z,66.28
2019-02-21T11:30:49.125Z,66.26
2019-02-21T11:31:54.387Z,66.26
2019-02-21T11:32:59.378Z,66.25
2019-02-21T11:34:04.629Z,66.19
2019-02-21T11:35:09.737Z,66.16
2019-02-21T11:36:14.762Z,66.12
2019-02-21T11:37:19.702Z,66.08
2019-02-21T11:38:24.634Z,66.01
2019-02-21T11:39:30.024Z,65.95
2019-02-21T11:40:34.960Z,65.93
2019-02-21T11:41:40.376Z,65.94
2019-02-21T11:42:45.657Z,65.92
2019-02-21T11:43:50.751Z,65.87
2019-02-21T11:44:56.122Z,65.76
2019-02-21T11:46:01.707Z,65.63
2019-02-21T11:47:07.075Z,65.59
2019-02-21T11:48:12.241Z,65.51
2019-02-21T11:49:17.232Z,65.41
2019-02-21T11:50:22.234Z,65.28
2019-02-21T11:51:47.850Z,65.11
2019-02-21T11:52:52.744Z,64.95
2019-02-21T11:53:58.127Z,64.75
2019-02-21T11:55:03.407Z,64.62
2019-02-21T11:56:08.511Z,64.48
2019-02-21T11:57:14.419Z,64.30
2019-02-21T11:58:19.492Z,64.06
2019-02-21T11:59:24.467Z,63.89
2019-02-21T12:00:29.579Z,63.64
2019-02-21T12:01:34.660Z,63.41
2019-02-21T12:02:39.602Z,63.21
2019-02-21T12:03:44.598Z,63.09
2019-02-21T12:04:50.273Z,62.96
2019-02-21T12:05:55.247Z,62.81
2019-02-21T12:07:00.174Z,62.64
2019-02-21T12:08:05.371Z,62.51
2019-02-21T12:09:12.026Z,62.29
2019-02-21T12:10:17.342Z,62.05
2019-02-21T12:11:22.341Z,61.74
2019-02-21T12:12:27.278Z,61.56
2019-02-21T12:13:32.598Z,61.34
2019-02-21T12:14:37.669Z,61.09
2019-02-21T12:15:43.114Z,60.86
2019-02-21T12:16:48.073Z,60.61
2019-02-21T12:17:53.786Z,60.43
2019-02-21T12:18:59.303Z,60.31
2019-02-21T12:20:05.507Z,60.23
2019-02-21T12:21:10.920Z,60.08
2019-02-21T12:22:16.188Z,59.98
2019-02-21T12:23:21.140Z,59.93
2019-02-21T12:24:26.173Z,59.85
2019-02-21T12:25:31.591Z,59.70
2019-02-21T12:26:36.977Z,59.59
2019-02-21T12:27:42.238Z,59.48
2019-02-21T12:28:47.564Z,59.42
2019-02-21T12:29:52.578Z,59.32
2019-02-21T12:30:57.933Z,59.26
2019-02-21T12:32:03.075Z,59.23
2019-02-21T12:33:08.528Z,59.19
2019-02-21T12:34:13.586Z,59.15
2019-02-21T12:35:29.373Z,59.13
2019-02-21T12:36:26.107Z,59.17
2019-02-21T12:37:31.635Z,59.16
2019-02-21T12:38:36.548Z,59.14
2019-02-21T12:39:41.528Z,59.15
2019-02-21T12:40:46.858Z,59.19
2019-02-21T12:41:51.832Z,59.13
2019-02-21T12:42:57.096Z,59.05
2019-02-21T12:44:02.033Z,58.96
2019-02-21T12:45:09.129Z,58.84
2019-02-21T12:46:14.211Z,58.76
2019-02-21T12:47:19.605Z,58.73
2019-02-21T12:48:24.563Z,58.73
2019-02-21T12:49:30.126Z,58.76
2019-02-21T12:50:43.988Z,58.72
2019-02-21T12:51:45.331Z,58.66
2019-02-21T12:52:50.606Z,58.59
2019-02-21T12:53:55.812Z,58.59
2019-02-21T12:55:01.880Z,58.59
2019-02-21T12:56:06.947Z,58.54
2019-02-21T12:57:12.287Z,58.41
2019-02-21T12:58:17.287Z,58.26
2019-02-21T12:59:22.305Z,58.12
2019-02-21T13:00:27.247Z,58.03
2019-02-21T13:01:32.190Z,58.00
2019-02-21T13:02:37.746Z,57.93
2019-02-21T13:03:42.661Z,57.87
2019-02-21T13:04:47.682Z,57.82
2019-02-21T13:05:52.709Z,57.76
2019-02-21T13:06:58.015Z,57.72
2019-02-21T13:08:03.531Z,57.68
2019-02-21T13:09:09.005Z,57.64
2019-02-21T13:10:15.748Z,57.60
2019-02-21T13:11:21.034Z,57.43
2019-02-21T13:12:26.068Z,57.21
2019-02-21T13:13:31.467Z,57.17
2019-02-21T13:14:36.729Z,57.17
2019-02-21T13:15:41.862Z,57.21
2019-02-21T13:16:47.176Z,57.31
2019-02-21T13:17:52.525Z,57.50
2019-02-21T13:18:57.520Z,57.67
2019-02-21T13:20:02.574Z,57.70
2019-02-21T13:21:08.098Z,57.66
2019-02-21T13:22:13.089Z,57.62
2019-02-21T13:23:18.770Z,57.60
2019-02-21T13:24:23.780Z,57.58
2019-02-21T13:25:28.974Z,57.57
2019-02-21T13:26:34.073Z,57.62
2019-02-21T13:27:39.211Z,57.63
2019-02-21T13:28:44.339Z,57.70
2019-02-21T13:29:49.604Z,57.79
2019-02-21T13:30:55.296Z,57.90
2019-02-21T13:32:00.534Z,58.00
2019-02-21T13:33:05.529Z,58.12
2019-02-21T13:34:10.630Z,58.35
2019-02-21T13:35:16.531Z,58.61
2019-02-21T13:36:22.128Z,58.87
2019-02-21T13:37:29.125Z,59.21
2019-02-21T13:38:33.774Z,59.47
2019-02-21T13:39:38.812Z,59.64
2019-02-21T13:40:43.822Z,59.75
2019-02-21T13:41:49.095Z,59.79
2019-02-21T13:42:54.202Z,59.79
2019-02-21T13:43:59.261Z,59.79
2019-02-21T13:45:04.781Z,59.88
2019-02-21T13:46:09.830Z,59.98
2019-02-21T13:47:15.214Z,60.01
2019-02-21T13:48:20.627Z,60.08
2019-02-21T13:49:26.002Z,60.14
2019-02-21T13:50:31.531Z,60.20
2019-02-21T13:51:36.557Z,60.18
2019-02-21T13:52:41.663Z,60.17
2019-02-21T13:53:47.107Z,60.19
2019-02-21T13:54:54.143Z,60.17
2019-02-21T13:55:59.119Z,60.15
2019-02-21T13:57:04.228Z,60.12
2019-02-21T13:58:09.614Z,60.11
2019-02-21T13:59:14.725Z,60.08
2019-02-21T14:00:20.237Z,60.08
2019-02-21T14:01:25.590Z,60.08
2019-02-21T14:02:30.666Z,60.10
2019-02-21T14:03:35.727Z,60.08
2019-02-21T14:04:41.053Z,60.07
2019-02-21T14:05:45.998Z,60.11
2019-02-21T14:06:50.970Z,60.16
2019-02-21T14:07:55.925Z,60.22
2019-02-21T14:09:00.852Z,60.25
2019-02-21T14:10:06.160Z,60.21
2019-02-21T14:11:11.186Z,60.14
2019-02-21T14:12:16.390Z,60.12
2019-02-21T14:13:21.812Z,60.14
2019-02-21T14:14:27.329Z,60.12
2019-02-21T14:15:32.417Z,60.11
2019-02-21T14:16:46.216Z,60.09
2019-02-21T14:17:46.639Z,60.03